Time;durP1;ratioP1;P1;durP2;ratioP2;P2;SDS_P1;SDS_P2;PMS_P1;PMS_P2;Temp;Humidity;BMP_temperature;BMP_pressure;BME280_temperature;BME280_humidity;BME280_pressure;Samples;Min_cycle;Max_cycle;Signal;HPM_P1;HPM_P2
2023/10/31 00:01:31;;;;;;;;;;;;;;;;;;5116876;28;19908;-76
2023/10/31 00:03:57;;;;;;;;;;;;;;;;;;5116440;28;19957;-77
2023/10/31 00:06:23;;;;;;;;;;;;;;;;;;5116877;28;19904;-77
2023/10/31 00:08:49;;;;;;;;;;;;;;;;;;5116246;28;19945;-77
2023/10/31 00:11:15;;;;;;;;;;;;;;;;;;5116886;28;19903;-77
2023/10/31 00:13:41;;;;;;;;;;;;;;;;;;5117032;28;19986;-76
2023/10/31 00:16:07;;;;;;;;;;;;;;;;;;5116198;28;20388;-76
2023/10/31 00:18:33;;;;;;;;;;;;;;;;;;5116553;28;20329;-76
2023/10/31 00:20:59;;;;;;;;;;;;;;;;;;5116591;28;20366;-76
2023/10/31 00:23:25;;;;;;;;;;;;;;;;;;5116081;28;20275;-76
2023/10/31 00:25:51;;;;;;;;;;;;;;;;;;5116274;28;20272;-77
2023/10/31 00:28:17;;;;;;;;;;;;;;;;;;5114886;28;19915;-76
2023/10/31 00:30:42;;;;;;;;;;;;;;;;;;5115977;28;19904;-76
2023/10/31 00:33:08;;;;;;;;;;;;;;;;;;5116283;28;19903;-77
2023/10/31 00:35:34;;;;;;;;;;;;;;;;;;5116215;28;19949;-77
2023/10/31 00:38:00;;;;;;;;;;;;;;;;;;5115764;28;19904;-76
2023/10/31 00:40:26;;;;;;;;;;;;;;;;;;5116114;28;19911;-77
2023/10/31 00:42:53;;;;;;;;;;;;;;;;;;5116058;28;20390;-76
2023/10/31 00:45:19;;;;;;;;;;;;;;;;;;5115691;28;19904;-76
2023/10/31 00:47:45;;;;;;;;;;;;;;;;;;5115916;28;20006;-76
2023/10/31 00:50:11;;;;;;;;;;;;;;;;;;5115850;28;19908;-76
2023/10/31 00:52:37;;;;;;;;;;;;;;;;;;5115672;28;19904;-76
2023/10/31 00:55:03;;;;;;;;;;;;;;;;;;5116186;28;20336;-77
2023/10/31 00:57:29;;;;;;;;;;;;;;;;;;5115818;28;19911;-76
2023/10/31 00:59:55;;;;;;;;;;;;;;;;;;5115571;27;19943;-77
2023/10/31 01:02:21;;;;;;;401.70;241.83;;;;;;;;;;5115200;28;20464;-77
2023/10/31 01:04:48;;;;;;;228.32;167.68;;;;;;;;;;5115436;28;20027;-77
2023/10/31 01:07:16;;;;;;;;;;;;;;;;;;5115375;28;20116;-77
2023/10/31 01:09:42;;;;;;;;;;;;;;;;;;5115973;28;19911;-77
2023/10/31 01:12:10;;;;;;;;;;;;;;;;;;5115460;28;20359;-76
2023/10/31 01:14:36;;;;;;;;;;;;;;;;;;5115558;28;20310;-76
2023/10/31 01:17:02;;;;;;;;;;;;;;;;;;5114497;28;19904;-76
2023/10/31 01:19:28;;;;;;;;;;;;;;;;;;5114867;28;20352;-76
2023/10/31 01:21:54;;;;;;;;;;;;;;;;;;5114034;28;20272;-76
2023/10/31 01:24:20;;;;;;;;;;;;;;;;;;5114185;28;19965;-77
2023/10/31 01:26:46;;;;;;;;;;;;;;;;;;5117020;28;19908;-76
2023/10/31 01:29:12;;;;;;;;;;;;;;;;;;5115933;28;20402;-77
2023/10/31 01:31:38;;;;;;;;;;;;;;;;;;5115274;28;19990;-76
2023/10/31 01:34:04;;;;;;;;;;;;;;;;;;5114813;28;19920;-76
2023/10/31 01:36:30;;;;;;;;;;;;;;;;;;5113714;28;19904;-77
2023/10/31 01:38:55;;;;;;;;;;;;;;;;;;5114431;28;19904;-76
2023/10/31 01:41:21;;;;;;;;;;;;;;;;;;5114601;28;19904;-76
2023/10/31 01:43:48;;;;;;;;;;;;;;;;;;5114891;28;19910;-76
2023/10/31 01:46:14;;;;;;;;;;;;;;;;;;5114888;28;19965;-77
2023/10/31 01:48:40;;;;;;;;;;;;;;;;;;5113046;28;19911;-76
2023/10/31 01:51:06;;;;;;;;;;;;;;;;;;5114951;28;20414;-76
2023/10/31 01:53:33;;;;;;;;;;;;;;;;;;5114736;28;19962;-77
2023/10/31 01:55:59;;;;;;;;;;;;;;;;;;5114294;28;19991;-77
2023/10/31 01:58:25;;;;;;;;;;;;;;;;;;5115165;28;20363;-77
2023/10/31 02:00:51;;;;;;;;;;;;;;;;;;5114585;28;20355;-76
2023/10/31 02:03:17;;;;;;;;;;;;;;;;;;5114269;28;19904;-77
2023/10/31 02:05:43;;;;;;;;;;;;;;;;;;5114572;28;19929;-77
2023/10/31 02:08:09;;;;;;;;;;;;;;;;;;5114395;28;19915;-77
2023/10/31 02:10:35;;;;;;;;;;;;;;;;;;5114036;28;19922;-76
2023/10/31 02:13:00;;;;;;;;;;;;;;;;;;5114472;28;19908;-77
2023/10/31 02:15:26;;;;;;;;;;;;;;;;;;5113966;28;19904;-76
2023/10/31 02:17:52;;;;;;;;;;;;;;;;;;5114327;28;19903;-76
2023/10/31 02:20:18;;;;;;;;;;;;;;;;;;5114319;28;20019;-77
2023/10/31 02:22:44;;;;;;;;;;;;;;;;;;5112676;28;19980;-76
2023/10/31 02:25:10;;;;;;;;;;;;;;;;;;5114253;28;19903;-77
2023/10/31 02:27:36;;;;;;;;;;;;;;;;;;5114016;28;19926;-76
2023/10/31 02:30:02;;;;;;;;;;;;;;;;;;5113872;28;19908;-77
2023/10/31 02:32:28;;;;;;;;;;;;;;;;;;5114260;28;19903;-78
2023/10/31 02:34:54;;;;;;;;;;;;;;;;;;5114163;28;19911;-77
2023/10/31 02:37:20;;;;;;;;;;;;;;;;;;5113861;28;19904;-77
2023/10/31 02:39:46;;;;;;;;;;;;;;;;;;5114171;28;19911;-77
2023/10/31 02:42:12;;;;;;;;;;;;;;;;;;5114140;28;19956;-77
2023/10/31 02:44:37;;;;;;;;;;;;;;;;;;5113727;28;19943;-76
2023/10/31 02:47:03;;;;;;;;;;;;;;;;;;5114123;28;19904;-77
2023/10/31 02:49:29;;;;;;;;;;;;;;;;;;5114559;28;19934;-78
2023/10/31 02:51:55;;;;;;;;;;;;;;;;;;5116599;28;19910;-77
2023/10/31 02:54:21;;;;;;;;;;;;;;;;;;5118163;28;19904;-77
2023/10/31 02:56:47;;;;;;;;;;;;;;;;;;5118103;28;19910;-77
2023/10/31 02:59:13;;;;;;;;;;;;;;;;;;5117708;28;19903;-77
2023/10/31 03:01:39;;;;;;;;;;;;;;;;;;5118295;28;19903;-77
2023/10/31 03:04:05;;;;;;;;;;;;;;;;;;5118477;28;19994;-78
2023/10/31 03:06:31;;;;;;;;;;;;;;;;;;5117695;28;19995;-77
2023/10/31 03:08:57;;;;;;;;;;;;;;;;;;5117754;28;19957;-77
2023/10/31 03:11:23;;;;;;;;;;;;;;;;;;5117875;28;20367;-77
2023/10/31 03:13:49;;;;;;;;;;;;;;;;;;5117329;28;19942;-76
2023/10/31 03:16:15;;;;;;;;;;;;;;;;;;5117824;28;20380;-77
2023/10/31 03:18:41;;;;;;;;;;;;;;;;;;5117253;28;20316;-77
2023/10/31 03:21:07;;;;;;;;;;;;;;;;;;5117708;28;20271;-77
2023/10/31 03:23:32;;;;;;;;;;;;;;;;;;5117623;28;20280;-77
2023/10/31 03:25:58;;;;;;;;;;;;;;;;;;5117038;28;20325;-77
2023/10/31 03:28:25;;;;;;;;;;;;;;;;;;5117277;28;20283;-77
2023/10/31 03:30:51;;;;;;;;;;;;;;;;;;5117484;28;19926;-77
2023/10/31 03:33:16;;;;;;;;;;;;;;;;;;5117067;28;20355;-78
2023/10/31 03:35:42;;;;;;;;;;;;;;;;;;5117326;28;20427;-77
2023/10/31 03:38:08;;;;;;;;;;;;;;;;;;5117426;28;20255;-77
2023/10/31 03:40:34;;;;;;;;;;;;;;;;;;5116980;28;19907;-77
2023/10/31 03:43:00;;;;;;;;;;;;;;;;;;5117300;28;19903;-77
2023/10/31 03:45:26;;;;;;;;;;;;;;;;;;5117288;28;19903;-77
2023/10/31 03:47:52;;;;;;;;;;;;;;;;;;5115467;28;19904;-78
2023/10/31 03:50:18;;;;;;;;;;;;;;;;;;5117301;28;19904;-78
2023/10/31 03:52:44;;;;;;;;;;;;;;;;;;5117692;28;20002;-77
2023/10/31 03:55:10;;;;;;;;;;;;;;;;;;5116771;28;19910;-78
2023/10/31 03:57:36;;;;;;;;;;;;;;;;;;5115813;28;20312;-77
2023/10/31 04:00:04;;;;;;;;;;;;;;;;;;5116598;28;20002;-78
2023/10/31 04:02:30;;;;;;;;;;;;;;;;;;5116349;28;20332;-77
2023/10/31 04:04:56;;;;;;;;;;;;;;;;;;5116876;28;19990;-78
2023/10/31 04:07:22;;;;;;;;;;;;;;;;;;5116819;28;19911;-77
2023/10/31 04:09:48;;;;;;;;;;;;;;;;;;5116325;28;19918;-77
2023/10/31 04:12:14;;;;;;;;;;;;;;;;;;5116740;28;20003;-77
2023/10/31 04:14:40;;;;;;;;;;;;;;;;;;5115289;28;20271;-77
2023/10/31 04:17:06;;;;;;;;;;;;;;;;;;5115378;28;19957;-78
2023/10/31 04:19:32;;;;;;;;;;;;;;;;;;5116805;28;19907;-77
2023/10/31 04:21:58;;;;;;;;;;;;;;;;;;5116083;28;19910;-78
2023/10/31 04:24:23;;;;;;;;;;;;;;;;;;5116410;28;20008;-78
2023/10/31 04:26:49;;;;;;;;;;;;;;;;;;5116443;28;20383;-77
2023/10/31 04:29:15;;;;;;;;;;;;;;;;;;5115759;28;19915;-77
2023/10/31 04:31:41;;;;;;;;;;;;;;;;;;5116382;28;19964;-77
2023/10/31 04:34:07;;;;;;;;;;;;;;;;;;5116301;28;19943;-77
2023/10/31 04:36:33;;;;;;;;;;;;;;;;;;5115777;28;19904;-77
2023/10/31 04:38:59;;;;;;;;;;;;;;;;;;5116094;28;20287;-77
2023/10/31 04:41:25;;;;;;;;;;;;;;;;;;5116145;28;19972;-77
2023/10/31 04:43:51;;;;;;;;;;;;;;;;;;5115602;28;19903;-77
2023/10/31 04:46:17;;;;;;;;;;;;;;;;;;5114692;28;19998;-77
2023/10/31 04:48:43;;;;;;;;;;;;;;;;;;5115902;28;19912;-77
2023/10/31 04:51:09;;;;;;;;;;;;;;;;;;5114228;28;20355;-76
2023/10/31 04:53:35;;;;;;;;;;;;;;;;;;5115985;28;20010;-76
2023/10/31 04:56:01;;;;;;;;;;;;;;;;;;5115882;28;19904;-76
2023/10/31 04:58:27;;;;;;;;;;;;;;;;;;5115472;28;19904;-76
2023/10/31 05:00:53;;;;;;;;;;;;;;;;;;5115613;28;19903;-76
2023/10/31 05:03:19;;;;;;;;;;;;;;;;;;5115641;28;19973;-76
2023/10/31 05:05:44;;;;;;;;;;;;;;;;;;5116307;28;19947;-77
2023/10/31 05:08:10;;;;;;;;;;;;;;;;;;5115573;28;19915;-77
2023/10/31 05:10:36;;;;;;;;;;;;;;;;;;5115550;28;20006;-77
2023/10/31 05:13:03;;;;;;;;;;;;;;;;;;5114230;28;19903;-76
2023/10/31 05:15:29;;;;;;;;;;;;;;;;;;5115436;28;19903;-77
2023/10/31 05:17:54;;;;;;;;;;;;;;;;;;5115374;28;19998;-78
2023/10/31 05:20:21;;;;;;;;;;;;;;;;;;5115002;28;20033;-78
2023/10/31 05:22:47;;;;;;;;;;;;;;;;;;5115460;28;20419;-78
2023/10/31 05:25:13;;;;;;;;;;;;;;;;;;5115290;28;20030;-77
2023/10/31 05:27:39;;;;;;;;;;;;;;;;;;5114649;28;19903;-77
2023/10/31 05:30:05;;;;;;;;;;;;;;;;;;5115342;28;19915;-77
2023/10/31 05:32:30;;;;;;;;;;;;;;;;;;5114861;28;19994;-77
2023/10/31 05:34:56;;;;;;;;;;;;;;;;;;5115420;28;19936;-77
2023/10/31 05:37:22;;;;;;;;;;;;;;;;;;5115190;28;19918;-78
2023/10/31 05:39:48;;;;;;;;;;;;;;;;;;5113365;28;20323;-78
2023/10/31 05:42:14;;;;;;;;;;;;;;;;;;5114962;28;19908;-77
2023/10/31 05:44:40;;;;;;;;;;;;;;;;;;5114902;28;19904;-76
2023/10/31 05:47:06;;;;;;;;;;;;;;;;;;5113212;28;19908;-77
2023/10/31 05:49:32;;;;;;;;;;;;;;;;;;5113464;28;20014;-77
2023/10/31 05:51:58;;;;;;;;;;;;;;;;;;5115014;28;19911;-77
2023/10/31 05:54:25;;;;;;;;;;;;;;;;;;5114497;28;20360;-78
2023/10/31 05:56:51;;;;;;;;;;;;;;;;;;5114927;28;19903;-78
2023/10/31 05:59:17;;;;;;;;;;;;;;;;;;5113452;28;20256;-78
2023/10/31 06:01:43;;;;;;;;;;;;;;;;;;5114275;28;20322;-77
2023/10/31 06:04:09;;;;;;;;;;;;;;;;;;5114554;28;19911;-77
2023/10/31 06:06:35;;;;;;;;;;;;;;;;;;5114532;28;19986;-77
2023/10/31 06:09:01;;;;;;;;;;;;;;;;;;5114037;28;19912;-77
2023/10/31 06:11:27;;;;;;;;;;;;;;;;;;5114469;28;19908;-78
2023/10/31 06:13:53;;;;;;;;;;;;;;;;;;5114441;28;20002;-77
2023/10/31 06:16:19;;;;;;;;;;;;;;;;;;5112697;28;19904;-78
2023/10/31 06:18:45;;;;;;;;;;;;;;;;;;5114477;28;19908;-77
2023/10/31 06:21:11;;;;;;;;;;;;;;;;;;5112734;28;20337;-77
2023/10/31 06:23:38;;;;;;;678.95;281.42;;;;;;;;;;5111093;28;20368;-78
2023/10/31 06:26:04;;;;;;;;;;;;;;;;;;5113106;28;20023;-76
2023/10/31 06:28:30;;;;;;;;;;;;;;;;;;5112364;28;19916;-77
2023/10/31 06:30:56;;;;;;;;;;;;;;;;;;5111733;28;19918;-80
2023/10/31 06:33:23;;;;;;;572.72;295.50;;;;;;;;;;5100448;28;20404;-76
2023/10/31 06:35:50;;;;;;;645.58;303.42;;;;;;;;;;5108570;28;20477;-75
2023/10/31 06:38:16;;;;;;;;;;;;;;;;;;5103031;28;20028;-73
2023/10/31 06:40:42;;;;;;;;;;;;;;;;;;5111673;28;19994;-72
2023/10/31 06:43:08;;;;;;;;;;;;;;;;;;5111857;28;19915;-73
2023/10/31 06:45:35;;;;;;;;;;;;;;;;;;5104711;28;19915;-73
2023/10/31 06:48:00;;;;;;;;;;;;;;;;;;5106538;28;20457;-72
2023/10/31 06:50:26;;;;;;;;;;;;;;;;;;5110103;28;19919;-73
2023/10/31 06:52:53;;;;;;;;;;;;;;;;;;5111455;28;19904;-72
2023/10/31 06:55:19;;;;;;;;;;;;;;;;;;5110034;28;19915;-75
2023/10/31 06:57:45;;;;;;;;;;;;;;;;;;5102320;28;19933;-80
2023/10/31 07:00:11;;;;;;;;;;;;;;;;;;5109654;28;19915;-75
2023/10/31 07:02:37;;;;;;;;;;;;;;;;;;5110136;28;20278;-73
2023/10/31 07:05:03;;;;;;;;;;;;;;;;;;5112521;28;19911;-75
2023/10/31 07:07:29;;;;;;;;;;;;;;;;;;5112554;28;20348;-75
2023/10/31 07:09:55;;;;;;;;;;;;;;;;;;5112989;28;19915;-77
2023/10/31 07:12:21;;;;;;;;;;;;;;;;;;5111760;28;19907;-74
2023/10/31 07:14:47;;;;;;;;;;;;;;;;;;5105771;28;20435;-75
2023/10/31 07:17:13;;;;;;;;;;;;;;;;;;5113521;28;20275;-77
2023/10/31 07:19:39;;;;;;;;;;;;;;;;;;5109324;28;20010;-77
2023/10/31 07:22:05;;;;;;;;;;;;;;;;;;5110353;28;20451;-80
2023/10/31 07:24:31;;;;;;;;;;;;;;;;;;5109310;28;19919;-82
2023/10/31 07:26:57;;;;;;;;;;;;;;;;;;5106754;28;20330;-77
2023/10/31 07:29:23;;;;;;;;;;;;;;;;;;5107447;28;20026;-79
2023/10/31 07:31:49;;;;;;;;;;;;;;;;;;5106132;28;19908;-78
2023/10/31 07:34:15;;;;;;;;;;;;;;;;;;5106758;28;19930;-78
2023/10/31 07:36:41;;;;;;;;;;;;;;;;;;5106892;28;19908;-76
2023/10/31 07:39:07;;;;;;;;;;;;;;;;;;5113300;28;19903;-76
2023/10/31 07:41:34;;;;;;;;;;;;;;;;;;5115177;28;19910;-74
2023/10/31 07:44:00;;;;;;;;;;;;;;;;;;5115412;27;20266;-75
2023/10/31 07:46:26;;;;;;;;;;;;;;;;;;5107033;28;19998;-75
2023/10/31 07:48:52;;;;;;;;;;;;;;;;;;5095075;28;19908;-74
2023/10/31 07:51:18;;;;;;;;;;;;;;;;;;5100817;28;20027;-77
2023/10/31 07:53:46;;;;;;;;;;;;;;;;;;5113954;27;19918;-76
2023/10/31 07:56:12;;;;;;;;;;;;;;;;;;5114433;28;19904;-77
2023/10/31 07:58:38;;;;;;;;;;;;;;;;;;5113149;28;19904;-76
2023/10/31 08:01:04;;;;;;;;;;;;;;;;;;5100376;28;19918;-74
2023/10/31 08:03:30;;;;;;;;;;;;;;;;;;5107444;28;19950;-75
2023/10/31 08:06:13;;;;;;;;;;;;;;;;;;5108611;27;19920;-75
2023/10/31 08:08:39;;;;;;;;;;;;;;;;;;5107821;28;19934;-72
2023/10/31 08:12:03;;;;;;;;;;;;;;;;;;5087954;27;19920;-73
2023/10/31 08:14:29;;;;;;;;;;;;;;;;;;5090514;28;19912;-78
2023/10/31 08:16:55;;;;;;;;;;;;;;;;;;5086026;28;19908;-72
2023/10/31 08:19:21;;;;;;;;;;;;;;;;;;5085358;28;19999;-74
2023/10/31 08:21:47;;;;;;;;;;;;;;;;;;5081825;28;19913;-73
2023/10/31 08:24:14;;;;;;;;;;;;;;;;;;5082796;28;19921;-73
2023/10/31 08:26:40;;;;;;;;;;;;;;;;;;5082678;28;20376;-74
2023/10/31 08:29:06;;;;;;;;;;;;;;;;;;5084753;28;20362;-72
2023/10/31 08:31:32;;;;;;;;;;;;;;;;;;5084085;28;19921;-72
2023/10/31 08:33:58;;;;;;;;;;;;;;;;;;5078515;28;20448;-74
2023/10/31 08:36:23;;;;;;;;;;;;;;;;;;5099741;28;19916;-74
2023/10/31 08:38:49;;;;;;;;;;;;;;;;;;5074053;28;20453;-72
2023/10/31 08:41:19;;;;;;;;;;;;;;;;;;5086089;28;19912;-73
2023/10/31 08:43:45;;;;;;;;;;;;;;;;;;5080754;28;19953;-71
2023/10/31 08:46:11;;;;;;;;;;;;;;;;;;5089290;28;19920;-72
2023/10/31 08:49:21;;;;;;;;;;;;;;;;;;5082866;27;19964;-70
2023/10/31 08:53:45;;;;;;;;;;;;;;;;;;5096400;27;19927;-72
2023/10/31 08:56:11;;;;;;;;;;;;;;;;;;5088545;28;19912;-72
2023/10/31 08:58:37;;;;;;;;;;;;;;;;;;5087222;28;19913;-71
2023/10/31 09:01:03;;;;;;;;;;;;;;;;;;5088134;28;20292;-71
2023/10/31 09:03:30;;;;;;;;;;;;;;;;;;5087017;28;20493;-71
2023/10/31 09:05:56;;;;;;;;;;;;;;;;;;5087137;28;20006;-70
2023/10/31 09:08:22;;;;;;;;;;;;;;;;;;5069261;28;19909;-70
2023/10/31 09:10:48;;;;;;;;;;;;;;;;;;5067505;28;19996;-70
2023/10/31 09:13:14;;;;;;;;;;;;;;;;;;5067367;28;19916;-71
2023/10/31 09:15:41;;;;;;;;;;;;;;;;;;5081081;28;19915;-73
2023/10/31 09:18:07;;;;;;;;;;;;;;;;;;5083333;28;20332;-72
2023/10/31 09:22:22;;;;;;;;;;;;;;;;;;5115748;27;19926;-72
2023/10/31 09:24:50;;;;;;;;;;;;;;;;;;5113544;27;20006;-72
2023/10/31 09:27:16;;;;;;;;;;;;;;;;;;5109464;28;20360;-70
2023/10/31 09:29:42;;;;;;;;;;;;;;;;;;5103839;28;19955;-72
2023/10/31 09:32:08;;;;;;;;;;;;;;;;;;5098501;28;19908;-73
2023/10/31 09:34:33;;;;;;;;;;;;;;;;;;5102014;28;20011;-70
2023/10/31 09:36:59;;;;;;;;;;;;;;;;;;5090565;28;19931;-71
2023/10/31 09:39:27;;;;;;;;;;;;;;;;;;5092068;28;19959;-72
2023/10/31 09:41:53;;;;;;;;;;;;;;;;;;5120327;28;19923;-73
2023/10/31 09:44:19;;;;;;;;;;;;;;;;;;5104155;28;20376;-73
2023/10/31 09:46:45;;;;;;;;;;;;;;;;;;5094154;28;19923;-72
2023/10/31 09:49:11;;;;;;;;;;;;;;;;;;5107738;28;19908;-71
2023/10/31 09:51:38;;;;;;;;;;;;;;;;;;5106258;28;19948;-70
2023/10/31 09:54:04;;;;;;;;;;;;;;;;;;5100011;28;19912;-71
2023/10/31 09:56:34;;;;;;;;;;;;;;;;;;5108187;28;20329;-70
2023/10/31 09:59:00;;;;;;;;;;;;;;;;;;5107090;28;19916;-70
2023/10/31 10:01:26;;;;;;;;;;;;;;;;;;5106564;28;19920;-71
2023/10/31 10:03:52;;;;;;;;;;;;;;;;;;5107431;28;20069;-71
2023/10/31 10:06:21;;;;;;;;;;;;;;;;;;5116437;28;19920;-71
2023/10/31 10:08:47;;;;;;;;;;;;;;;;;;5104284;28;19919;-70
2023/10/31 10:11:13;;;;;;;;;;;;;;;;;;5104949;28;19908;-70
2023/10/31 10:13:39;;;;;;;;;;;;;;;;;;5106028;28;19912;-72
2023/10/31 10:16:05;;;;;;;;;;;;;;;;;;5110174;28;20003;-68
2023/10/31 10:18:31;;;;;;;;;;;;;;;;;;5109300;28;19919;-71
2023/10/31 10:22:35;;;;;;;;;;;;;;;;;;5090408;27;19913;-70
2023/10/31 10:25:01;;;;;;;;;;;;;;;;;;5090701;28;20003;-70
2023/10/31 10:27:27;;;;;;;;;;;;;;;;;;5088640;28;20020;-69
2023/10/31 10:29:53;;;;;;;;;;;;;;;;;;5086907;28;19916;-69
2023/10/31 10:32:20;;;;;;;;;;;;;;;;;;5088556;28;19916;-67
2023/10/31 10:34:45;;;;;;;;;;;;;;;;;;5087948;28;19965;-69
2023/10/31 10:37:12;;;;;;;;;;;;;;;;;;5083168;28;19912;-71
2023/10/31 10:39:38;;;;;;;;;;;;;;;;;;5084390;28;20378;-68
2023/10/31 10:42:40;;;;;;;;;;;;;;;;;;5087577;27;19919;-67
2023/10/31 10:45:06;;;;;;;;;;;;;;;;;;5086271;28;19912;-66
2023/10/31 10:49:12;;;;;;;;;;;;;;;;;;5125985;27;19911;-69
2023/10/31 10:51:43;;;;;;;;;;;;;;;;;;5086180;28;20468;-68
2023/10/31 10:54:13;;;;;;;;;;;;;;;;;;5093356;28;19919;-67
2023/10/31 10:56:39;;;;;;;;;;;;;;;;;;5103247;28;19999;-68
2023/10/31 10:59:06;;;;;;;;;;;;;;;;;;5104667;28;19920;-69
2023/10/31 11:01:32;;;;;;;;;;;;;;;;;;5107125;28;19912;-67
2023/10/31 11:03:58;;;;;;;;;;;;;;;;;;5102984;28;20470;-69
2023/10/31 11:06:24;;;;;;;;;;;;;;;;;;5107271;28;19912;-67
2023/10/31 11:08:50;;;;;;;;;;;;;;;;;;5102880;28;20014;-67
2023/10/31 11:11:16;;;;;;;;;;;;;;;;;;5094142;28;19920;-69
2023/10/31 11:13:42;;;;;;;;;;;;;;;;;;5106815;28;19908;-68
2023/10/31 11:16:08;;;;;;;;;;;;;;;;;;5108592;28;19908;-68
2023/10/31 11:18:35;;;;;;;;;;;;;;;;;;5094724;28;19974;-69
2023/10/31 11:21:01;;;;;;;;;;;;;;;;;;5086021;28;19908;-72
2023/10/31 11:23:27;;;;;;;;;;;;;;;;;;5095033;28;19916;-73
2023/10/31 11:25:54;;;;;;;;;;;;;;;;;;5098838;28;19986;-70
2023/10/31 11:28:20;;;;;;;;;;;;;;;;;;5106838;28;20069;-71
2023/10/31 11:30:46;;;;;;;;;;;;;;;;;;5108088;28;19911;-70
2023/10/31 11:33:12;;;;;;;;;;;;;;;;;;5108174;28;19919;-71
2023/10/31 11:35:37;;;;;;;;;;;;;;;;;;5108205;28;19912;-70
2023/10/31 11:38:09;;;;;;;;;;;;;;;;;;5108185;28;20329;-71
2023/10/31 11:40:35;;;;;;;;;;;;;;;;;;5103145;28;19923;-70
2023/10/31 11:43:01;;;;;;;;;;;;;;;;;;5088728;28;20415;-71
2023/10/31 11:47:35;;;;;;;;;;;;;;;;;;5089433;27;19912;-72
2023/10/31 11:50:01;;;;;;;;;;;;;;;;;;5084545;28;19912;-72
2023/10/31 11:52:27;;;;;;;;;;;;;;;;;;5089564;28;19987;-71
2023/10/31 11:54:53;;;;;;;;;;;;;;;;;;5090272;28;19963;-70
2023/10/31 11:59:31;;;;;;;;;;;;;;;;;;5081700;27;20399;-70
2023/10/31 12:01:57;;;;;;;;;;;;;;;;;;5068753;28;19913;-70
2023/10/31 12:04:23;;;;;;;;;;;;;;;;;;5069468;28;19913;-69
2023/10/31 12:06:49;;;;;;;;;;;;;;;;;;5064342;28;19913;-70
2023/10/31 12:09:15;;;;;;;;;;;;;;;;;;5068357;28;19919;-70
2023/10/31 12:11:41;;;;;;;;;;;;;;;;;;5066978;28;19915;-71
2023/10/31 12:14:07;;;;;;;;;;;;;;;;;;5068913;28;19909;-72
2023/10/31 12:16:33;;;;;;;;;;;;;;;;;;5065383;28;20023;-71
2023/10/31 12:18:59;;;;;;;;;;;;;;;;;;5068052;28;19932;-72
2023/10/31 12:21:25;;;;;;;;;;;;;;;;;;5068739;28;19913;-72
2023/10/31 12:23:53;;;;;;;;;;;;;;;;;;5068349;28;19913;-73
2023/10/31 12:26:19;;;;;;;;;;;;;;;;;;5059082;28;19920;-70
2023/10/31 12:28:45;;;;;;;;;;;;;;;;;;5066917;28;20007;-72
2023/10/31 12:31:11;;;;;;;;;;;;;;;;;;5069384;28;19959;-71
2023/10/31 12:33:37;;;;;;;;;;;;;;;;;;5072424;28;19977;-70
2023/10/31 12:36:03;;;;;;;;;;;;;;;;;;5068854;28;19941;-70
2023/10/31 12:39:28;;;;;;;;;;;;;;;;;;5121397;27;19920;-71
2023/10/31 12:41:54;;;;;;;;;;;;;;;;;;5083032;28;20387;-71
2023/10/31 12:44:20;;;;;;;;;;;;;;;;;;5078172;28;19920;-69
2023/10/31 12:46:46;;;;;;;;;;;;;;;;;;5079082;28;19913;-70
2023/10/31 12:49:13;;;;;;;;;;;;;;;;;;5089636;28;19961;-69
2023/10/31 12:51:39;;;;;;;;;;;;;;;;;;5081840;28;19913;-69
2023/10/31 12:54:05;;;;;;;;;;;;;;;;;;5086962;28;20321;-71
2023/10/31 12:56:31;;;;;;;;;;;;;;;;;;5067767;28;19909;-70
2023/10/31 12:58:58;;;;;;;;;;;;;;;;;;5068679;28;20365;-70
2023/10/31 13:01:24;;;;;;;;;;;;;;;;;;5068702;28;19977;-70
2023/10/31 13:03:51;;;;;;;;;;;;;;;;;;5069931;28;19920;-71
2023/10/31 13:06:17;;;;;;;;;;;;;;;;;;5069809;28;19913;-69
2023/10/31 13:08:43;;;;;;;;;;;;;;;;;;5070078;28;20369;-69
2023/10/31 13:11:09;;;;;;;;;;;;;;;;;;5074058;28;19921;-68
2023/10/31 13:13:35;;;;;;;;;;;;;;;;;;5088861;28;19955;-69
2023/10/31 13:18:19;;;;;;;219.20;136.85;;;;;;;;;;5109138;27;20356;-69
2023/10/31 13:20:45;;;;;;;;;;;;;;;;;;5110894;28;20106;-69
2023/10/31 13:23:11;;;;;;;;;;;;;;;;;;5110489;28;19951;-68
2023/10/31 13:25:38;;;;;;;;;;;;;;;;;;5109526;28;19912;-67
2023/10/31 13:28:06;;;;;;;;;;;;;;;;;;5110619;28;19950;-68
2023/10/31 13:30:32;;;;;;;;;;;;;;;;;;5109718;28;19911;-68
2023/10/31 13:32:58;;;;;;;;;;;;;;;;;;5110691;28;20280;-68
2023/10/31 13:35:24;;;;;;;;;;;;;;;;;;5110568;28;19915;-68
2023/10/31 13:37:50;;;;;;;;;;;;;;;;;;5109779;28;20355;-67
2023/10/31 13:40:17;;;;;;;;;;;;;;;;;;5110781;28;19903;-68
2023/10/31 13:44:33;;;;;;;;;;;;;;;;;;5110337;27;20307;-70
2023/10/31 13:47:40;;;;;;;;;;;;;;;;;;5109184;27;20360;-74
2023/10/31 13:52:28;;;;;;;;;;;;;;;;;;5087220;27;19917;-75
2023/10/31 13:55:07;;;;;;;;;;;;;;;;;;5108216;27;19920;-74
2023/10/31 14:00:50;;;;;;;;;;;;;;;;;;5088899;27;19939;-74
2023/10/31 14:05:18;;;;;;;;;;;;;;;;;;5089336;28;19916;-75
2023/10/31 14:07:44;;;;;;;;;;;;;;;;;;5088515;28;20330;-74
2023/10/31 14:10:10;;;;;;;;;;;;;;;;;;5090659;28;19951;-75
2023/10/31 14:12:36;;;;;;;;;;;;;;;;;;5090865;28;19909;-74
2023/10/31 14:15:02;;;;;;;544.25;252.15;;;;;;;;;;5088245;28;20373;-74
2023/10/31 14:17:28;;;;;;;;;;;;;;;;;;5088799;28;20043;-74
2023/10/31 14:19:54;;;;;;;;;;;;;;;;;;5090097;28;19904;-75
2023/10/31 14:22:20;;;;;;;;;;;;;;;;;;5090492;28;19927;-75
2023/10/31 14:24:46;;;;;;;461.15;238.85;;;;;;;;;;5090054;28;20890;-75
2023/10/31 14:27:13;;;;;;;544.40;260.65;;;;;;;;;;5087503;28;20350;-75
2023/10/31 14:30:59;;;;;;;;;;;;;;;;;;5111413;27;20712;-75
2023/10/31 14:33:25;;;;;;;352.40;219.38;;;;;;;;;;5110280;28;20454;-76
2023/10/31 14:35:51;;;;;;;;;;;;;;;;;;5111144;28;20434;-77
2023/10/31 14:38:17;;;;;;;;;;;;;;;;;;5111501;28;19912;-77
2023/10/31 14:40:43;;;;;;;;;;;;;;;;;;5110173;28;20376;-76
2023/10/31 14:43:09;;;;;;;;;;;;;;;;;;5111046;28;20288;-76
2023/10/31 14:45:35;;;;;;;;;;;;;;;;;;5111489;28;20002;-75
2023/10/31 14:50:29;;;;;;;;;;;;;;;;;;5091545;27;19916;-75
2023/10/31 14:54:00;;;;;;;;;;;;;;;;;;5092153;27;19916;-76
2023/10/31 14:58:19;;;;;;;;;;;;;;;;;;5111891;27;19912;-75
2023/10/31 15:00:45;;;;;;;;;;;;;;;;;;5111776;28;20011;-75
2023/10/31 15:04:53;;;;;;;;;;;;;;;;;;5091495;27;19922;-76
2023/10/31 15:07:19;;;;;;;;;;;;;;;;;;5091603;28;20325;-77
2023/10/31 15:09:45;;;;;;;;;;;;;;;;;;5090853;28;19950;-76
2023/10/31 15:12:12;;;;;;;;;;;;;;;;;;5091201;28;19915;-76
2023/10/31 15:14:38;;;;;;;;;;;;;;;;;;5091279;28;20004;-76
2023/10/31 15:17:04;;;;;;;;;;;;;;;;;;5090762;28;19908;-76
2023/10/31 15:23:29;;;;;;;;;;;;;;;;;;5091134;27;19916;-76
2023/10/31 15:25:57;;;;;;;;;;;;;;;;;;5091535;28;19934;-77
2023/10/31 15:32:49;;;;;;;;;;;;;;;;;;5091435;27;19916;-76
2023/10/31 15:35:15;;;;;;;;;;;;;;;;;;5090063;28;20003;-76
2023/10/31 15:38:37;;;;;;;;;;;;;;;;;;5091258;27;19916;-77
2023/10/31 15:41:03;;;;;;;;;;;;;;;;;;5091427;28;19999;-77
2023/10/31 15:44:56;;;;;;;;;;;;;;;;;;5111285;27;19916;-75
2023/10/31 15:47:22;;;;;;;;;;;;;;;;;;5111784;28;19944;-76
2023/10/31 15:49:48;;;;;;;;;;;;;;;;;;5111624;28;19908;-77
2023/10/31 15:52:14;;;;;;;;;;;;;;;;;;5111197;28;19908;-75
2023/10/31 15:54:40;;;;;;;;;;;;;;;;;;5111552;28;19908;-76
2023/10/31 15:57:06;;;;;;;;;;;;;;;;;;5111759;28;19915;-78
2023/10/31 15:59:32;;;;;;;;;;;;;;;;;;5111086;28;19908;-77
2023/10/31 16:02:27;;;;;;;;;;;;;;;;;;5091672;28;20281;-77
2023/10/31 16:04:53;;;;;;;;;;;;;;;;;;5091701;28;19999;-75
2023/10/31 16:07:53;;;;;;;;;;;;;;;;;;5091785;27;20402;-76
2023/10/31 16:10:19;;;;;;;;;;;;;;;;;;5091821;28;19999;-77
2023/10/31 16:12:45;;;;;;;;;;;;;;;;;;5090973;28;20003;-77
2023/10/31 16:15:57;;;;;;;;;;;;;;;;;;5092143;27;19926;-77
2023/10/31 16:18:23;;;;;;;;;;;;;;;;;;5091681;28;19998;-75
2023/10/31 16:20:50;;;;;;;;;;;;;;;;;;5090816;28;19950;-76
2023/10/31 16:23:17;;;;;;;;;;;;;;;;;;5091345;28;20421;-76
2023/10/31 16:25:43;;;;;;;;;;;;;;;;;;5091209;28;20003;-76
2023/10/31 16:28:09;;;;;;;;;;;;;;;;;;5090633;28;19947;-77
2023/10/31 16:30:35;;;;;;;;;;;;;;;;;;5091116;28;19915;-77
2023/10/31 16:34:55;;;;;;;;;;;;;;;;;;5091295;27;19916;-77
2023/10/31 16:38:49;;;;;;;;;;;;;;;;;;5091621;27;19912;-77
2023/10/31 16:43:11;;;;;;;;;;;;;;;;;;5153517;27;20069;-76
2023/10/31 16:46:57;;;;;;;;;;;;;;;;;;5112311;27;19922;-76
2023/10/31 16:51:19;;;;;;;;;;;;;;;;;;5092489;27;19916;-78
2023/10/31 16:53:45;;;;;;;;;;;;;;;;;;5091497;28;19912;-78
2023/10/31 16:58:35;;;;;;;;;;;;;;;;;;5112547;27;19916;-75
2023/10/31 17:01:01;;;;;;;;;;;;;;;;;;5111933;28;20011;-78
2023/10/31 17:03:27;;;;;;;;;;;;;;;;;;5111416;28;19948;-77
2023/10/31 17:05:53;;;;;;;;;;;;;;;;;;5110491;28;19961;-78
2023/10/31 17:08:19;;;;;;;;;;;;;;;;;;5110305;28;19914;-78
2023/10/31 17:10:45;;;;;;;;;;;;;;;;;;5109971;28;19912;-77
2023/10/31 17:13:11;;;;;;;;;;;;;;;;;;5112427;28;19908;-77
2023/10/31 17:17:04;;;;;;;;;;;;;;;;;;5091244;27;19916;-76
2023/10/31 17:19:30;;;;;;;;;;;;;;;;;;5090025;28;19912;-76
2023/10/31 17:21:58;;;;;;;;;;;;;;;;;;5091454;28;19908;-76
2023/10/31 17:24:46;;;;;;;;;;;;;;;;;;5091119;27;19916;-76
2023/10/31 17:27:12;;;;;;;;;;;;;;;;;;5091378;28;20027;-77
2023/10/31 17:29:38;;;;;;;;;;;;;;;;;;5091280;28;20002;-75
2023/10/31 17:32:05;;;;;;;;;;;;;;;;;;5090973;28;19956;-77
2023/10/31 17:34:31;;;;;;;;;;;;;;;;;;5091329;28;20337;-77